Time;durP1;ratioP1;P1;durP2;ratioP2;P2;SDS_P1;SDS_P2;PMS_P1;PMS_P2;Temp;Humidity;BMP_temperature;BMP_pressure;BME280_temperature;BME280_humidity;BME280_pressure;Samples;Min_cycle;Max_cycle;Signal;HPM_P1;HPM_P2
2022/08/02 00:00:42;;;;;;;7.90;2.38;;;13.80;99.90;;;;;;5039522;28;20057;-74
2022/08/02 00:03:08;;;;;;;6.40;2.47;;;13.90;99.90;;;;;;5042212;28;20118;-74
2022/08/02 00:05:33;;;;;;;7.22;2.63;;;13.70;99.90;;;;;;5041174;28;20045;-74
2022/08/02 00:07:59;;;;;;;4.72;2.00;;;13.70;99.90;;;;;;5039507;28;20049;-74
2022/08/02 00:10:24;;;;;;;;;;;13.60;99.90;;;;;;5041836;28;20045;-74
2022/08/02 00:12:50;;;;;;;9.32;2.33;;;14.00;99.90;;;;;;5038889;28;19921;-74
2022/08/02 00:15:16;;;;;;;5.57;2.13;;;13.60;99.90;;;;;;5039296;28;20044;-74
2022/08/02 00:17:45;;;;;;;6.47;2.50;;;13.60;99.90;;;;;;5031667;28;20116;-74
2022/08/02 00:20:11;;;;;;;7.78;2.58;;;13.80;99.90;;;;;;5037696;28;20041;-74
2022/08/02 00:22:37;;;;;;;6.40;2.45;;;13.60;99.90;;;;;;5038310;28;20037;-74
2022/08/02 00:25:02;;;;;;;;;;;13.50;99.90;;;;;;5036470;28;20052;-74
2022/08/02 00:27:28;;;;;;;13.43;2.72;;;13.60;99.90;;;;;;5038843;28;19921;-74
2022/08/02 00:29:54;;;;;;;;;;;13.50;99.90;;;;;;5039761;28;20041;-73
2022/08/02 00:32:23;;;;;;;5.00;2.30;;;13.60;99.90;;;;;;5038639;28;20015;-75
2022/08/02 00:34:49;;;;;;;11.18;2.58;;;13.50;99.90;;;;;;5041855;28;20091;-74
2022/08/02 00:37:17;;;;;;;8.38;2.72;;;13.60;99.90;;;;;;5039863;28;20084;-73
2022/08/02 00:39:42;;;;;;;5.88;2.50;;;13.50;99.90;;;;;;5028288;28;20044;-73
2022/08/02 00:42:08;;;;;;;;;;;13.60;99.90;;;;;;5031097;28;20397;-74
2022/08/02 00:44:34;;;;;;;10.50;2.67;;;13.50;99.90;;;;;;5034212;28;19928;-74
2022/08/02 00:47:02;;;;;;;;;;;13.60;99.90;;;;;;5027575;28;20061;-73
2022/08/02 00:49:31;;;;;;;6.68;2.60;;;13.60;99.90;;;;;;5038553;28;20352;-73
2022/08/02 00:51:56;;;;;;;;;;;13.60;99.90;;;;;;5040484;28;20037;-73
2022/08/02 00:54:22;;;;;;;5.38;2.60;;;13.70;99.90;;;;;;5039194;28;19925;-74
2022/08/02 00:56:47;;;;;;;;;;;13.50;99.90;;;;;;5041168;28;20075;-74
2022/08/02 00:59:13;;;;;;;6.07;2.80;;;13.50;99.90;;;;;;5037364;28;20463;-74
2022/08/02 01:01:39;;;;;;;;;;;13.50;99.90;;;;;;5039310;28;20393;-74
2022/08/02 01:04:06;;;;;;;6.90;2.90;;;13.40;99.90;;;;;;5041118;28;19917;-74
2022/08/02 01:06:32;;;;;;;8.63;2.72;;;13.40;99.90;;;;;;5040082;28;20080;-73
2022/08/02 01:08:59;;;;;;;;;;;13.40;99.90;;;;;;5039856;28;20505;-74
2022/08/02 01:11:24;;;;;;;7.53;3.03;;;13.40;99.90;;;;;;5041023;28;20383;-74
2022/08/02 01:13:50;;;;;;;;;;;13.40;99.90;;;;;;5039033;28;20041;-74
2022/08/02 01:16:22;;;;;;;7.43;3.10;;;13.50;99.90;;;;;;5038274;28;19921;-73
2022/08/02 01:18:56;;;;;;;6.88;2.78;;;13.40;99.90;;;;;;5040758;28;20049;-73
2022/08/02 01:22:02;;;;;;;7.07;3.38;;;13.30;99.90;;;;;;5039896;28;20045;-73
2022/08/02 01:24:57;;;;;;;7.07;2.83;;;13.30;99.90;;;;;;5032378;28;20049;-73
2022/08/02 01:27:53;;;;;;;5.35;2.58;;;13.30;99.90;;;;;;5040020;28;20056;-73
2022/08/02 01:30:19;;;;;;;7.10;3.10;;;13.30;99.90;;;;;;5040355;28;20401;-71
2022/08/02 01:33:00;;;;;;;10.95;3.53;;;13.20;99.90;;;;;;5045197;28;20166;-73
2022/08/02 01:35:41;;;;;;;7.75;3.00;;;13.20;99.90;;;;;;5044506;28;20048;-73
2022/08/02 01:38:13;;;;;;;6.53;2.88;;;13.10;99.90;;;;;;5039140;28;20113;-72
2022/08/02 01:40:43;;;;;;;8.30;3.05;;;13.20;99.90;;;;;;5045971;28;20037;-73
2022/08/02 01:43:10;;;;;;;7.53;3.15;;;13.20;99.90;;;;;;5040374;28;20064;-73
2022/08/02 01:45:40;;;;;;;8.93;3.40;;;13.10;99.90;;;;;;5040288;28;20388;-73
2022/08/02 01:48:08;;;;;;;9.05;3.00;;;13.20;99.90;;;;;;5037903;28;20037;-74
2022/08/02 01:50:37;;;;;;;7.00;3.13;;;13.10;99.90;;;;;;5045279;28;20044;-74
2022/08/02 01:53:06;;;;;;;9.50;3.42;;;13.20;99.90;;;;;;5040762;28;20072;-74
2022/08/02 01:55:56;;;;;;;6.82;2.90;;;13.30;99.90;;;;;;5038748;28;20079;-74
2022/08/02 01:58:26;;;;;;;7.07;3.50;;;13.20;99.90;;;;;;5043517;28;20505;-74
2022/08/02 02:00:55;;;;;;;5.53;2.72;;;13.20;99.90;;;;;;5042428;28;20049;-74
2022/08/02 02:03:23;;;;;;;9.43;3.72;;;13.20;99.90;;;;;;5043470;28;20099;-74
2022/08/02 02:05:52;;;;;;;7.00;3.28;;;13.30;99.90;;;;;;5041195;28;20052;-75
2022/08/02 02:08:26;;;;;;;8.95;3.38;;;13.10;99.90;;;;;;5043401;28;20049;-74
2022/08/02 02:10:54;;;;;;;6.95;3.33;;;13.10;99.90;;;;;;5040037;28;20516;-74
2022/08/02 02:13:25;;;;;;;7.82;3.45;;;13.10;99.90;;;;;;5043910;28;20048;-74
2022/08/02 02:15:52;;;;;;;8.48;3.50;;;13.00;99.90;;;;;;5038780;28;20110;-74
2022/08/02 02:18:24;;;;;;;9.32;3.85;;;13.10;99.90;;;;;;5040889;28;20051;-74
2022/08/02 02:20:51;;;;;;;7.55;3.10;;;13.10;99.90;;;;;;5044605;28;20045;-73
2022/08/02 02:23:17;;;;;;;8.32;3.13;;;13.00;99.90;;;;;;5041905;28;20048;-74
2022/08/02 02:25:43;;;;;;;;;;;13.10;99.90;;;;;;5041999;28;20499;-74
2022/08/02 02:28:11;;;;;;;8.65;3.42;;;13.00;99.90;;;;;;5042445;28;19923;-74
2022/08/02 02:30:47;;;;;;;9.98;3.50;;;13.00;99.90;;;;;;5040670;28;20128;-74
2022/08/02 02:33:15;;;;;;;6.87;3.50;;;13.00;99.90;;;;;;5040705;28;20044;-74
2022/08/02 02:35:43;;;;;;;7.40;3.45;;;13.00;99.90;;;;;;5042161;28;20037;-74
2022/08/02 02:38:12;;;;;;;8.10;3.42;;;13.00;99.90;;;;;;5043299;28;20041;-74
2022/08/02 02:40:40;;;;;;;8.73;3.55;;;13.00;99.90;;;;;;5040748;28;20485;-74
2022/08/02 02:43:08;;;;;;;9.32;3.92;;;13.00;99.90;;;;;;5043289;28;20037;-74
2022/08/02 02:45:38;;;;;;;8.48;3.95;;;12.90;99.90;;;;;;5036742;28;20045;-75
2022/08/02 02:48:04;;;;;;;9.10;3.85;;;12.90;99.90;;;;;;5041320;28;20052;-74
2022/08/02 02:50:31;;;;;;;9.25;3.50;;;12.80;99.90;;;;;;5042279;28;20045;-74
2022/08/02 02:52:57;;;;;;;7.18;3.22;;;12.80;99.90;;;;;;5044018;28;20055;-73
2022/08/02 02:55:24;;;;;;;7.40;3.10;;;12.80;99.90;;;;;;5039119;28;20042;-74
2022/08/02 02:57:50;;;;;;;7.50;3.30;;;12.70;99.90;;;;;;5043017;28;20044;-74
2022/08/02 03:00:16;;;;;;;;;;;12.80;99.90;;;;;;5039810;28;20052;-74
2022/08/02 03:02:43;;;;;;;7.43;3.35;;;12.80;99.90;;;;;;5040675;28;20362;-74
2022/08/02 03:05:10;;;;;;;7.40;3.20;;;12.80;99.90;;;;;;5041846;28;20133;-74
2022/08/02 03:07:37;;;;;;;6.78;3.42;;;12.70;99.90;;;;;;5040653;28;20045;-74
2022/08/02 03:10:04;;;;;;;5.85;3.35;;;13.00;99.90;;;;;;5042029;28;20132;-73
2022/08/02 03:12:30;;;;;;;8.40;3.33;;;12.80;99.90;;;;;;5041944;28;20037;-73
2022/08/02 03:14:56;;;;;;;;;;;12.80;99.90;;;;;;5038398;28;20045;-74
2022/08/02 03:17:22;;;;;;;8.77;3.38;;;12.80;99.90;;;;;;5043008;28;20300;-74
2022/08/02 03:19:48;;;;;;;;;;;12.70;99.90;;;;;;5039573;28;20041;-74
2022/08/02 03:22:13;;;;;;;10.30;3.63;;;12.70;99.90;;;;;;5043387;28;19924;-74
2022/08/02 03:24:39;;;;;;;10.77;3.42;;;12.70;99.90;;;;;;5040112;28;20493;-74
2022/08/02 03:27:05;;;;;;;;;;;12.80;99.90;;;;;;5042386;28;20041;-74
2022/08/02 03:29:30;;;;;;;10.00;3.15;;;12.80;99.90;;;;;;5040687;28;20331;-74
2022/08/02 03:31:56;;;;;;;;;;;12.70;99.90;;;;;;5041789;28;20049;-74
2022/08/02 03:34:22;;;;;;;9.57;3.67;;;12.80;99.90;;;;;;5040247;28;19921;-74
2022/08/02 03:36:53;;;;;;;8.75;3.30;;;12.80;99.90;;;;;;5043142;28;20045;-74
2022/08/02 03:39:25;;;;;;;8.05;3.25;;;12.80;99.90;;;;;;5039262;28;20041;-74
2022/08/02 03:41:53;;;;;;;7.13;3.03;;;12.80;99.90;;;;;;5043052;28;20044;-74
2022/08/02 03:44:19;;;;;;;7.93;3.25;;;12.80;99.90;;;;;;5039702;28;20049;-74
2022/08/02 03:46:44;;;;;;;;;;;12.70;99.90;;;;;;5036091;28;20393;-72
2022/08/02 03:49:12;;;;;;;9.20;3.42;;;12.80;99.90;;;;;;5033256;28;20006;-72
2022/08/02 03:51:38;;;;;;;8.93;3.33;;;12.80;99.90;;;;;;5037323;28;20044;-71
2022/08/02 03:54:03;;;;;;;;;;;13.00;99.90;;;;;;5041707;28;20493;-71
2022/08/02 03:56:30;;;;;;;8.68;3.22;;;12.90;99.90;;;;;;5040437;28;20411;-72
2022/08/02 03:59:09;;;;;;;9.75;3.35;;;13.00;99.90;;;;;;5040194;28;20053;-72
2022/08/02 04:01:35;;;;;;;9.77;3.35;;;13.00;99.90;;;;;;5039090;28;20049;-71
2022/08/02 04:04:00;;;;;;;;;;;13.00;99.90;;;;;;5040573;28;20051;-71
2022/08/02 04:06:26;;;;;;;7.25;3.53;;;13.00;99.90;;;;;;5040361;28;20038;-71
2022/08/02 04:08:52;;;;;;;;;;;13.00;99.90;;;;;;5040691;28;20488;-74
2022/08/02 04:11:30;;;;;;;8.18;3.95;;;13.20;99.90;;;;;;5041732;28;20007;-74
2022/08/02 04:14:06;;;;;;;9.20;3.70;;;13.20;99.90;;;;;;5040089;28;20116;-74
2022/08/02 04:16:51;;;;;;;11.90;3.80;;;13.20;99.90;;;;;;5039967;28;20041;-74
2022/08/02 04:19:26;;;;;;;8.30;3.83;;;13.30;99.90;;;;;;5034646;28;20038;-74
2022/08/02 04:21:54;;;;;;;7.40;3.40;;;13.30;99.90;;;;;;5036457;28;20060;-74
2022/08/02 04:24:27;;;;;;;7.25;3.63;;;13.40;99.90;;;;;;5038409;28;20091;-75
2022/08/02 04:26:57;;;;;;;6.22;3.47;;;13.30;99.90;;;;;;5041173;28;20096;-74
2022/08/02 04:29:24;;;;;;;9.15;3.70;;;13.40;99.90;;;;;;5039141;28;20071;-74
2022/08/02 04:31:51;;;;;;;6.40;3.22;;;13.40;99.90;;;;;;5038141;28;20148;-74
2022/08/02 04:34:16;;;;;;;10.55;3.95;;;13.50;99.90;;;;;;5035838;28;20129;-75
2022/08/02 04:36:42;;;;;;;;;;;13.40;99.90;;;;;;5038534;28;20123;-74
2022/08/02 04:39:08;;;;;;;6.65;3.92;;;13.40;99.90;;;;;;5038330;28;20361;-75
2022/08/02 04:41:37;;;;;;;;;;;13.50;99.90;;;;;;5039931;28;20049;-75
2022/08/02 04:44:03;;;;;;;8.15;3.42;;;13.50;99.90;;;;;;5035593;28;19928;-74
2022/08/02 04:46:28;;;;;;;;;;;13.50;99.90;;;;;;5035076;28;20040;-74
2022/08/02 04:48:54;;;;;;;8.32;4.25;;;13.60;99.90;;;;;;5040575;28;19921;-74
2022/08/02 04:51:19;;;;;;;;;;;13.60;99.90;;;;;;5038957;28;20088;-74
2022/08/02 04:53:45;;;;;;;8.43;3.15;;;13.50;99.90;;;;;;5039140;28;19927;-73
2022/08/02 04:56:11;;;;;;;10.45;4.13;;;13.60;99.90;;;;;;5040337;28;20095;-73
2022/08/02 04:58:36;;;;;;;9.77;3.88;;;13.60;99.90;;;;;;5038513;28;20093;-73
2022/08/02 05:01:02;;;;;;;;;;;13.70;99.90;;;;;;5039161;28;20116;-73
2022/08/02 05:03:27;;;;;;;6.68;3.78;;;13.50;99.90;;;;;;5042632;28;19920;-73
2022/08/02 05:05:53;;;;;;;;;;;13.50;99.90;;;;;;5042287;28;20041;-73
2022/08/02 05:08:18;;;;;;;7.47;3.20;;;13.60;99.90;;;;;;5040297;28;20315;-74
2022/08/02 05:10:44;;;;;;;;;;;13.60;99.90;;;;;;5045127;28;20132;-74
2022/08/02 05:13:10;;;;;;;7.53;3.50;;;13.60;99.90;;;;;;5042896;28;19924;-73
2022/08/02 05:15:35;;;;;;;;;;;14.30;99.90;;;;;;5043806;28;20056;-73
2022/08/02 05:18:01;;;;;;;8.02;3.20;;;13.70;99.90;;;;;;5044675;28;19920;-74
2022/08/02 05:20:26;;;;;;;8.85;3.60;;;13.70;99.90;;;;;;5041574;28;20044;-72
2022/08/02 05:22:52;;;;;;;;;;;13.70;99.90;;;;;;5042093;28;20037;-72
2022/08/02 05:25:18;;;;;;;6.85;4.05;;;13.90;99.90;;;;;;5044345;28;20382;-72
2022/08/02 05:27:43;;;;;;;;;;;14.00;99.90;;;;;;5044673;28;20045;-73
2022/08/02 05:30:09;;;;;;;9.63;3.50;;;14.00;99.90;;;;;;5041423;28;20293;-72
2022/08/02 05:32:45;;;;;;;8.10;3.50;;;14.20;99.90;;;;;;5045130;28;20036;-73
2022/08/02 05:35:11;;;;;;;7.80;3.80;;;14.40;99.90;;;;;;5042293;28;20045;-72
2022/08/02 05:37:37;;;;;;;7.70;4.00;;;14.50;99.90;;;;;;5043570;28;20402;-72
2022/08/02 05:40:03;;;;;;;5.90;3.17;;;14.70;99.90;;;;;;5043176;28;20049;-72
2022/08/02 05:42:32;;;;;;;9.40;3.60;;;14.80;99.90;;;;;;5045015;28;20075;-73
2022/08/02 05:45:01;;;;;;;8.30;3.47;;;15.10;99.90;;;;;;5040963;28;20041;-72
2022/08/02 05:47:26;;;;;;;9.13;3.28;;;15.30;99.90;;;;;;5037317;28;20075;-73
2022/08/02 05:49:52;;;;;;;;;;;15.30;99.90;;;;;;5043890;28;20072;-71
2022/08/02 05:52:19;;;;;;;8.38;3.78;;;15.50;99.90;;;;;;5041336;28;19928;-72
2022/08/02 05:54:53;;;;;;;6.78;3.30;;;15.70;99.90;;;;;;5043937;28;20045;-72
2022/08/02 05:57:45;;;;;;;6.70;3.50;;;15.70;99.90;;;;;;5035889;28;20165;-73
2022/08/02 06:00:13;;;;;;;7.10;3.10;;;15.90;99.90;;;;;;5044023;28;20084;-75
2022/08/02 06:02:41;;;;;;;7.63;3.60;;;16.00;99.90;;;;;;5044037;28;20041;-72
2022/08/02 06:05:16;;;;;;;7.47;3.20;;;16.20;99.90;;;;;;5041185;28;20056;-73
2022/08/02 06:07:44;;;;;;;6.82;3.03;;;16.30;99.90;;;;;;5043906;28;20045;-72
2022/08/02 06:10:12;;;;;;;8.07;2.90;;;16.50;99.90;;;;;;5039953;28;20393;-73
2022/08/02 06:12:48;;;;;;;7.70;2.95;;;16.70;99.90;;;;;;5044534;28;20079;-73
2022/08/02 06:15:17;;;;;;;6.35;3.10;;;16.70;99.90;;;;;;5040249;28;20044;-73
2022/08/02 06:17:44;;;;;;;7.70;2.92;;;16.80;99.90;;;;;;5040686;28;20600;-73
2022/08/02 06:20:12;;;;;;;7.32;3.05;;;16.90;99.90;;;;;;5041269;28;20630;-73
2022/08/02 06:22:43;;;;;;;6.47;2.63;;;16.90;99.90;;;;;;5040355;28;20033;-73
2022/08/02 06:25:11;;;;;;;7.65;2.60;;;17.00;99.90;;;;;;5041631;28;20403;-73
2022/08/02 06:27:38;;;;;;;8.38;3.10;;;17.20;99.90;;;;;;5042271;28;20121;-73
2022/08/02 06:30:05;;;;;;;6.97;2.83;;;16.90;99.90;;;;;;5039152;28;20053;-74
2022/08/02 06:32:33;;;;;;;4.72;2.80;;;17.00;99.90;;;;;;5039283;28;20041;-73
2022/08/02 06:34:59;;;;;;;5.40;2.55;;;17.10;99.90;;;;;;5041319;28;20056;-74
2022/08/02 06:37:57;;;;;;;7.93;2.90;;;17.20;99.90;;;;;;5042664;28;20041;-74
2022/08/02 06:40:31;;;;;;;6.90;2.30;;;17.40;99.90;;;;;;5039437;28;20042;-73
2022/08/02 06:43:04;;;;;;;5.03;2.60;;;17.60;99.90;;;;;;5041557;28;20492;-74
2022/08/02 06:45:31;;;;;;;4.95;2.25;;;17.70;99.90;;;;;;5041335;28;20598;-74
2022/08/02 06:47:57;;;;;;;6.22;2.55;;;17.80;99.90;;;;;;5037272;28;20072;-73
2022/08/02 06:50:22;;;;;;;6.25;2.25;;;17.80;99.90;;;;;;5043521;28;20080;-74
2022/08/02 06:52:54;;;;;;;7.90;2.60;;;17.80;99.90;;;;;;5040059;28;20041;-74
2022/08/02 06:55:20;;;;;;;7.00;2.45;;;18.10;99.90;;;;;;5042491;28;20029;-74
2022/08/02 06:57:46;;;;;;;4.50;2.38;;;17.80;99.90;;;;;;5040389;28;20041;-75
2022/08/02 07:00:11;;;;;;;8.43;2.45;;;17.70;99.90;;;;;;5039036;28;20080;-74
2022/08/02 07:02:40;;;;;;;6.90;2.35;;;17.90;99.90;;;;;;5039921;28;20129;-74
2022/08/02 07:05:09;;;;;;;6.95;2.50;;;17.90;99.90;;;;;;5042327;28;20505;-74
2022/08/02 07:07:35;;;;;;;9.45;2.10;;;18.00;99.90;;;;;;5040478;28;20045;-74
2022/08/02 07:10:00;;;;;;;6.50;2.40;;;18.20;99.90;;;;;;5041875;28;20060;-74
2022/08/02 07:12:27;;;;;;;4.63;2.20;;;18.30;99.90;;;;;;5042073;28;20033;-74
2022/08/02 07:14:53;;;;;;;5.05;2.30;;;18.30;99.90;;;;;;5038145;28;20130;-75
2022/08/02 07:17:18;;;;;;;5.68;2.53;;;18.50;99.90;;;;;;5040445;28;20108;-74
2022/08/02 07:19:44;;;;;;;8.05;2.78;;;18.50;99.90;;;;;;5042432;28;20086;-74
2022/08/02 07:22:11;;;;;;;3.88;1.92;;;18.70;99.90;;;;;;5038388;28;20379;-74
2022/08/02 07:24:37;;;;;;;5.18;2.00;;;18.80;99.90;;;;;;5043289;28;20162;-74
2022/08/02 07:27:03;;;;;;;6.25;2.05;;;19.00;99.90;;;;;;5037987;28;20045;-75
2022/08/02 07:29:29;;;;;;;3.65;1.75;;;19.20;99.90;;;;;;5042438;28;20106;-72
2022/08/02 07:31:55;;;;;;;4.93;1.88;;;19.30;99.90;;;;;;5040788;28;20146;-72
2022/08/02 07:34:20;;;;;;;5.47;2.00;;;19.50;99.90;;;;;;5042280;28;20501;-72
2022/08/02 07:36:46;;;;;;;6.50;2.20;;;19.80;99.90;;;;;;5040666;28;20033;-71
2022/08/02 07:39:12;;;;;;;4.38;2.15;;;20.30;99.90;;;;;;5041114;28;20037;-74
2022/08/02 07:41:37;;;;;;;4.75;1.88;;;20.90;99.90;;;;;;5042798;28;20488;-71
2022/08/02 07:44:03;;;;;;;6.75;1.70;;;21.60;99.20;;;;;;5038768;28;20053;-70
2022/08/02 07:46:29;;;;;;;5.80;1.90;;;21.80;98.80;;;;;;5040094;28;20034;-70
2022/08/02 07:48:58;;;;;;;4.43;1.70;;;21.90;98.00;;;;;;5037485;28;20041;-68
2022/08/02 07:51:23;;;;;;;4.70;2.05;;;21.90;98.00;;;;;;5041268;28;20045;-69
2022/08/02 07:53:49;;;;;;;4.90;1.90;;;22.30;98.20;;;;;;5041221;28;20103;-73
2022/08/02 07:56:15;;;;;;;6.00;1.73;;;22.70;97.60;;;;;;5040042;28;20047;-70
2022/08/02 07:58:41;;;;;;;5.07;1.83;;;23.10;97.30;;;;;;5039799;28;20367;-70
2022/08/02 08:01:07;;;;;;;5.50;1.83;;;23.20;97.10;;;;;;5040336;28;20045;-73
2022/08/02 08:03:33;;;;;;;5.50;2.28;;;23.40;97.10;;;;;;5038378;28;20539;-73
2022/08/02 08:05:59;;;;;;;6.43;2.20;;;23.60;96.60;;;;;;5043175;28;20072;-72
2022/08/02 08:08:25;;;;;;;4.55;2.30;;;24.10;96.20;;;;;;5039145;28;20111;-73
2022/08/02 08:10:50;;;;;;;8.30;2.33;;;24.40;95.70;;;;;;5040991;28;20038;-73
2022/08/02 08:13:16;;;;;;;5.75;2.55;;;24.70;96.00;;;;;;5041019;28;20037;-74
2022/08/02 08:15:42;;;;;;;5.20;2.20;;;25.10;95.30;;;;;;5039218;28;20045;-73
2022/08/02 08:18:07;;;;;;;5.43;2.50;;;25.40;94.40;;;;;;5038693;28;20037;-73
2022/08/02 08:20:33;;;;;;;3.70;2.30;;;25.40;94.50;;;;;;5042925;28;20389;-75
2022/08/02 08:22:59;;;;;;;5.15;2.67;;;25.40;95.20;;;;;;5038555;28;20045;-74
2022/08/02 08:25:24;;;;;;;5.25;2.50;;;25.70;94.40;;;;;;5041328;28;20044;-72
2022/08/02 08:27:51;;;;;;;5.85;2.70;;;25.50;94.40;;;;;;5039556;28;20037;-76
2022/08/02 08:30:18;;;;;;;6.20;2.63;;;25.60;94.50;;;;;;5037992;28;20054;-76
2022/08/02 08:32:44;;;;;;;6.38;2.90;;;25.50;95.40;;;;;;5038723;28;20518;-74
2022/08/02 08:35:10;;;;;;;6.88;2.63;;;25.70;95.10;;;;;;5040011;28;20053;-74
2022/08/02 08:37:37;;;;;;;5.70;3.00;;;25.80;94.80;;;;;;5040656;28;20052;-74
2022/08/02 08:40:08;;;;;;;7.70;3.42;;;26.10;95.10;;;;;;5036894;28;20508;-73
2022/08/02 08:42:35;;;;;;;7.00;3.03;;;26.20;94.60;;;;;;5037794;28;20095;-72
2022/08/02 08:45:01;;;;;;;5.70;3.10;;;26.40;94.30;;;;;;5035845;28;20872;-73
2022/08/02 08:47:38;;;;;;;5.13;2.75;;;26.40;94.80;;;;;;5033533;28;20048;-70
2022/08/02 08:50:07;;;;;;;6.30;2.83;;;26.80;93.50;;;;;;5034251;28;20037;-70
2022/08/02 08:52:41;;;;;;;5.43;2.90;;;27.00;93.70;;;;;;5034611;28;20543;-71
2022/08/02 08:55:10;;;;;;;5.20;3.15;;;26.90;93.20;;;;;;5034039;28;20042;-71
2022/08/02 08:57:40;;;;;;;4.90;2.83;;;26.30;93.60;;;;;;5037044;28;20516;-72
2022/08/02 09:00:07;;;;;;;12.02;3.30;;;26.00;94.20;;;;;;5033462;28;20111;-72
2022/08/02 09:02:34;;;;;;;7.35;3.05;;;25.90;94.80;;;;;;5019650;28;20037;-72
2022/08/02 09:05:00;;;;;;;8.95;3.50;;;26.10;95.10;;;;;;5042749;28;20424;-71
2022/08/02 09:07:27;;;;;;;6.93;3.08;;;26.30;94.30;;;;;;5044007;28;20408;-72
2022/08/02 09:09:53;;;;;;;6.78;3.85;;;26.70;94.60;;;;;;5040928;28;20045;-71
2022/08/02 09:12:23;;;;;;;6.53;3.80;;;26.70;94.00;;;;;;5046817;28;20036;-71
2022/08/02 09:14:49;;;;;;;7.32;4.20;;;26.70;94.50;;;;;;5037082;28;20051;-71
2022/08/02 09:17:15;;;;;;;6.07;3.78;;;26.90;94.40;;;;;;5045683;28;20115;-71
2022/08/02 09:19:41;;;;;;;6.90;4.05;;;27.00;94.50;;;;;;5042667;28;20033;-70
2022/08/02 09:22:08;;;;;;;6.80;4.75;;;27.10;94.60;;;;;;5043228;28;20136;-72
2022/08/02 09:24:44;;;;;;;10.27;5.28;;;27.10;95.00;;;;;;5042840;28;20063;-73
2022/08/02 09:27:11;;;;;;;;;;;27.20;94.90;;;;;;5044088;28;20400;-72
2022/08/02 09:29:37;;;;;;;10.63;5.70;;;27.30;94.60;;;;;;5041774;28;19963;-73
2022/08/02 09:32:03;;;;;;;7.50;5.05;;;27.10;94.60;;;;;;5038737;28;20095;-73
2022/08/02 09:34:49;;;;;;;8.30;5.25;;;27.30;94.80;;;;;;5043567;28;20045;-73
2022/08/02 09:37:25;;;;;;;;;;;27.20;94.60;;;;;;5038364;28;20045;-72
2022/08/02 09:39:51;;;;;;;7.05;4.72;;;27.00;95.10;;;;;;5039736;28;20372;-72
2022/08/02 09:42:17;;;;;;;9.60;5.53;;;27.10;95.10;;;;;;5041247;28;20087;-74
2022/08/02 09:45:00;;;;;;;7.28;4.78;;;27.00;95.10;;;;;;5044607;28;20212;-74
2022/08/02 09:47:27;;;;;;;8.68;4.90;;;27.10;94.90;;;;;;5037124;28;20037;-76
2022/08/02 09:49:55;;;;;;;10.00;4.75;;;26.80;95.10;;;;;;5038952;28;20131;-76
2022/08/02 09:52:29;;;;;;;7.10;4.80;;;26.80;95.90;;;;;;5042313;28;20041;-76
2022/08/02 09:55:01;;;;;;;6.78;4.63;;;27.00;95.50;;;;;;5042421;28;20044;-76
2022/08/02 09:57:28;;;;;;;10.45;5.43;;;27.60;96.00;;;;;;5042179;28;20045;-75
2022/08/02 09:59:55;;;;;;;8.50;5.30;;;28.00;95.30;;;;;;5042201;28;20412;-73
2022/08/02 10:02:20;;;;;;;7.93;5.40;;;28.30;94.80;;;;;;5041088;28;20045;-74
2022/08/02 10:04:46;;;;;;;8.32;5.28;;;28.30;94.60;;;;;;5044007;28;20045;-74
2022/08/02 10:07:15;;;;;;;10.80;6.72;;;28.50;94.60;;;;;;5040403;28;20044;-74
2022/08/02 10:09:44;;;;;;;10.00;7.00;;;28.40;94.10;;;;;;5036109;28;20096;-74
2022/08/02 10:12:10;;;;;;;10.18;6.43;;;27.90;94.20;;;;;;5036924;28;20477;-74
2022/08/02 10:14:37;;;;;;;11.73;7.15;;;27.50;95.30;;;;;;5036467;28;20073;-73
2022/08/02 10:17:04;;;;;;;11.32;6.90;;;27.30;95.50;;;;;;5044392;28;20052;-75
2022/08/02 10:19:29;;;;;;;11.45;6.40;;;27.10;95.90;;;;;;5041452;28;20037;-75
2022/08/02 10:22:00;;;;;;;11.55;7.28;;;27.30;96.00;;;;;;5043001;28;20412;-76
2022/08/02 10:24:30;;;;;;;12.65;7.85;;;27.40;95.80;;;;;;5041720;28;20131;-75
2022/08/02 10:26:58;;;;;;;10.00;7.82;;;27.30;96.10;;;;;;5042040;28;20052;-72
2022/08/02 10:29:37;;;;;;;12.70;8.57;;;27.10;95.70;;;;;;5037532;28;20099;-72
2022/08/02 10:32:20;;;;;;;14.38;8.68;;;26.90;96.40;;;;;;5035565;28;20048;-71
2022/08/02 10:34:49;;;;;;;14.32;8.13;;;26.90;96.50;;;;;;5040449;28;20038;-72
2022/08/02 10:37:16;;;;;;;15.93;9.13;;;26.80;96.60;;;;;;5043642;28;20107;-73
2022/08/02 10:39:43;;;;;;;14.13;9.15;;;26.70;96.60;;;;;;5042011;28;20056;-72
2022/08/02 10:42:10;;;;;;;13.35;9.07;;;26.90;96.50;;;;;;5044504;28;20037;-72
2022/08/02 10:44:36;;;;;;;12.20;8.60;;;26.70;96.70;;;;;;5039982;28;20046;-71
2022/08/02 10:47:31;;;;;;;14.77;9.15;;;26.50;96.80;;;;;;5033509;28;20397;-70
2022/08/02 10:50:02;;;;;;;14.45;8.95;;;26.30;96.80;;;;;;5033592;28;20049;-82
2022/08/02 10:52:31;;;;;;;12.50;10.20;;;26.10;97.30;;;;;;5040912;28;20038;-73
2022/08/02 10:55:08;;;;;;;12.27;8.73;;;26.00;97.80;;;;;;5040234;28;20049;-72
2022/08/02 10:57:35;;;;;;;11.70;8.40;;;25.80;97.80;;;;;;5036409;28;20088;-72
2022/08/02 11:00:13;;;;;;;11.55;8.38;;;25.80;97.70;;;;;;5038787;28;20041;-73
2022/08/02 11:02:41;;;;;;;14.55;8.98;;;25.80;97.60;;;;;;5038273;28;20493;-74
2022/08/02 11:05:13;;;;;;;14.13;8.77;;;26.10;97.70;;;;;;5043681;28;20037;-74
2022/08/02 11:07:46;;;;;;;11.43;8.63;;;26.10;97.90;;;;;;5040048;28;20037;-74
2022/08/02 11:10:24;;;;;;;11.82;8.38;;;26.40;98.00;;;;;;5036786;28;20056;-74
2022/08/02 11:13:07;;;;;;;13.10;8.13;;;26.70;98.10;;;;;;5040587;28;20065;-74
2022/08/02 11:16:00;;;;;;;12.38;7.68;;;26.70;97.40;;;;;;5036983;28;20092;-72
2022/08/02 11:19:04;;;;;;;11.73;7.50;;;26.50;98.10;;;;;;5035429;28;20048;-75
2022/08/02 11:21:32;;;;;;;12.63;8.57;;;26.20;98.60;;;;;;5032751;28;20061;-73
2022/08/02 11:24:24;;;;;;;13.82;8.48;;;26.10;97.70;;;;;;5039243;28;20512;-74
2022/08/02 11:26:50;;;;;;;14.55;9.13;;;25.60;98.20;;;;;;5034622;28;20053;-73
2022/08/02 11:29:16;;;;;;;13.00;9.00;;;25.30;98.30;;;;;;5039900;28;20042;-74
2022/08/02 11:31:43;;;;;;;16.05;10.90;;;25.10;98.70;;;;;;5042302;28;20055;-74
2022/08/02 11:34:10;;;;;;;12.00;9.55;;;24.80;99.00;;;;;;5026950;28;20152;-75
2022/08/02 11:36:48;;;;;;;13.90;9.02;;;24.70;99.40;;;;;;5029349;28;20080;-74
2022/08/02 11:39:15;;;;;;;16.52;10.02;;;24.50;99.80;;;;;;5030876;28;20049;-71
2022/08/02 11:41:42;;;;;;;12.77;9.35;;;24.30;99.90;;;;;;5031003;28;20045;-72
2022/08/02 11:44:08;;;;;;;15.52;9.95;;;24.30;99.90;;;;;;5033823;28;20133;-72
2022/08/02 11:46:34;;;;;;;15.13;10.93;;;24.20;99.90;;;;;;5039995;28;20127;-70
2022/08/02 11:49:17;;;;;;;18.02;11.35;;;23.90;99.90;;;;;;5042242;28;20033;-72
2022/08/02 11:51:54;;;;;;;14.73;10.50;;;23.80;99.90;;;;;;5042415;28;20041;-71
2022/08/02 11:54:25;;;;;;;13.75;10.20;;;23.60;99.90;;;;;;5039108;28;20044;-72
2022/08/02 11:56:51;;;;;;;18.35;11.88;;;23.60;99.90;;;;;;5038923;28;20049;-71
2022/08/02 11:59:17;;;;;;;14.02;9.88;;;23.50;99.90;;;;;;5041903;28;20037;-72
2022/08/02 12:01:47;;;;;;;14.27;10.48;;;23.40;99.90;;;;;;5030881;28;20041;-71
2022/08/02 12:04:18;;;;;;;15.90;10.40;;;23.30;99.90;;;;;;5041502;28;20056;-72
2022/08/02 12:06:52;;;;;;;16.27;10.77;;;23.20;99.90;;;;;;5040423;28;20045;-71
2022/08/02 12:09:17;;;;;;;16.88;10.40;;;23.10;99.90;;;;;;5033752;28;20409;-72
2022/08/02 12:11:47;;;;;;;13.82;9.70;;;23.10;99.90;;;;;;5041342;28;20037;-71
2022/08/02 12:14:13;;;;;;;15.60;10.60;;;23.20;99.90;;;;;;5040671;28;20124;-71
2022/08/02 12:19:26;;;;;;;14.38;9.52;;;23.30;99.90;;;;;;5035864;28;20124;-70
2022/08/02 12:22:14;;;;;;;14.35;10.27;;;23.30;99.90;;;;;;5029406;28;20486;-67
2022/08/02 12:24:44;;;;;;;16.10;9.85;;;23.30;99.90;;;;;;5029553;28;21388;-67
2022/08/02 12:27:26;;;;;;;12.18;9.40;;;23.40;99.90;;;;;;5028226;28;20064;-67
2022/08/02 12:29:59;;;;;;;14.05;9.40;;;23.50;99.90;;;;;;5029385;28;20073;-68
2022/08/02 12:32:24;;;;;;;13.13;9.35;;;23.50;99.90;;;;;;5029692;28;20033;-67
2022/08/02 12:35:16;;;;;;;13.77;10.05;;;23.70;99.90;;;;;;5030284;28;20087;-70
2022/08/02 12:37:44;;;;;;;12.85;9.85;;;23.70;99.90;;;;;;5030158;28;20048;-66
2022/08/02 12:40:30;;;;;;;12.55;8.88;;;23.80;99.90;;;;;;5032725;28;20037;-68
2022/08/02 12:42:58;;;;;;;12.10;8.45;;;24.00;99.90;;;;;;5037898;28;20080;-67
2022/08/02 12:45:27;;;;;;;10.57;7.50;;;24.30;99.90;;;;;;5035884;28;20106;-68
2022/08/02 12:47:54;;;;;;;10.82;7.88;;;24.80;99.90;;;;;;5037616;28;20038;-67
2022/08/02 12:50:29;;;;;;;11.30;7.50;;;24.70;99.90;;;;;;5038468;28;20072;-70
2022/08/02 12:53:13;;;;;;;12.23;8.27;;;24.90;99.90;;;;;;5035694;28;20049;-69
2022/08/02 12:55:53;;;;;;;10.30;7.38;;;25.20;99.40;;;;;;5037664;28;20065;-71
2022/08/02 12:58:19;;;;;;;10.70;7.38;;;25.40;99.30;;;;;;5034003;28;20091;-71
2022/08/02 13:00:57;;;;;;;11.80;7.07;;;25.60;99.30;;;;;;5038065;28;20044;-70
2022/08/02 13:03:23;;;;;;;9.70;6.53;;;25.80;98.40;;;;;;5037009;28;20125;-71
2022/08/02 13:05:48;;;;;;;11.85;6.78;;;25.80;98.20;;;;;;5038092;28;20128;-70